createdAt,value
2019-05-25T00:00:12.340Z,74.50
2019-05-25T00:02:41.739Z,74.27
2019-05-25T00:05:11.463Z,74.03
2019-05-25T00:07:41.013Z,73.89
2019-05-25T00:10:10.679Z,73.69
2019-05-25T00:12:40.176Z,73.23
2019-05-25T00:15:10.031Z,73.30
2019-05-25T00:17:39.416Z,73.07
2019-05-25T00:20:09.327Z,73.04
2019-05-25T00:22:38.868Z,73.05
2019-05-25T00:25:08.356Z,73.31
2019-05-25T00:27:37.765Z,73.62
2019-05-25T00:30:07.255Z,73.98
2019-05-25T00:32:36.778Z,73.87
2019-05-25T00:35:06.416Z,74.33
2019-05-25T00:37:35.785Z,74.46
2019-05-25T00:40:05.858Z,74.81
2019-05-25T00:42:35.464Z,75.24
2019-05-25T00:45:05.412Z,76.00
2019-05-25T00:47:34.785Z,76.22
2019-05-25T00:50:04.326Z,76.89
2019-05-25T00:52:33.876Z,76.64
2019-05-25T00:55:03.379Z,76.39
2019-05-25T00:57:32.815Z,76.18
2019-05-25T01:00:02.194Z,75.92
2019-05-25T01:02:31.666Z,75.27
2019-05-25T01:05:01.174Z,75.01
2019-05-25T01:07:30.575Z,74.73
2019-05-25T01:09:59.948Z,74.54
2019-05-25T01:12:29.529Z,74.47
2019-05-25T01:14:59.001Z,74.02
2019-05-25T01:17:28.367Z,73.72
2019-05-25T01:19:57.767Z,74.03
2019-05-25T01:22:27.535Z,73.99
2019-05-25T01:24:56.960Z,74.04
2019-05-25T01:27:26.365Z,73.83
2019-05-25T01:29:55.841Z,73.22
2019-05-25T01:32:25.245Z,73.07
2019-05-25T01:34:54.660Z,73.05
2019-05-25T01:37:24.101Z,73.16
2019-05-25T01:39:53.568Z,73.57
2019-05-25T01:42:22.978Z,73.86
2019-05-25T01:44:52.339Z,74.16
2019-05-25T01:47:21.817Z,73.95
2019-05-25T01:49:51.323Z,74.04
2019-05-25T01:52:20.697Z,73.99
2019-05-25T01:54:59.591Z,74.05
2019-05-25T01:57:21.391Z,74.02
2019-05-25T01:59:50.834Z,74.18
2019-05-25T02:02:20.246Z,74.17
2019-05-25T02:04:49.684Z,74.11
2019-05-25T02:07:19.235Z,74.02
2019-05-25T02:09:48.615Z,73.77
2019-05-25T02:12:18.100Z,73.67
2019-05-25T02:14:47.557Z,73.49
2019-05-25T02:17:16.930Z,73.02
2019-05-25T02:19:46.343Z,72.44
2019-05-25T02:22:15.850Z,72.23
2019-05-25T02:24:45.459Z,71.99
2019-05-25T02:27:14.819Z,71.93
2019-05-25T02:29:44.235Z,71.95
2019-05-25T02:32:13.694Z,72.02
2019-05-25T02:34:43.281Z,71.94
2019-05-25T02:37:12.696Z,71.80
2019-05-25T02:39:42.070Z,71.77
2019-05-25T02:42:11.591Z,72.14
2019-05-25T02:44:41.093Z,72.21
2019-05-25T02:47:10.466Z,72.03
2019-05-25T02:49:39.939Z,71.53
2019-05-25T02:52:09.343Z,71.60
2019-05-25T02:54:38.701Z,71.38
2019-05-25T02:57:08.174Z,71.33
2019-05-25T02:59:37.685Z,70.96
2019-05-25T03:02:07.044Z,70.75
2019-05-25T03:04:36.415Z,70.30
2019-05-25T03:07:05.910Z,69.76
2019-05-25T03:09:36.869Z,69.76
2019-05-25T03:12:06.237Z,69.33
2019-05-25T03:14:35.660Z,68.69
2019-05-25T03:17:05.113Z,68.27
2019-05-25T03:19:34.586Z,68.10
2019-05-25T03:22:04.032Z,67.93
2019-05-25T03:24:33.373Z,68.02
2019-05-25T03:27:02.842Z,67.69
2019-05-25T03:29:32.234Z,67.66
2019-05-25T03:32:01.801Z,67.57
2019-05-25T03:34:31.274Z,67.18
2019-05-25T03:37:00.679Z,66.47
2019-05-25T03:39:30.042Z,66.47
2019-05-25T03:41:59.624Z,66.26
2019-05-25T03:44:29.175Z,66.64
2019-05-25T03:46:58.541Z,66.16
2019-05-25T03:49:27.900Z,65.79
2019-05-25T03:51:57.390Z,65.20
2019-05-25T03:54:26.840Z,65.43
2019-05-25T03:56:56.210Z,65.24
2019-05-25T03:59:25.605Z,65.06
2019-05-25T04:01:55.158Z,64.86
2019-05-25T04:04:24.662Z,64.36
2019-05-25T04:06:54.066Z,64.26
2019-05-25T04:09:23.513Z,64.14
2019-05-25T04:11:52.864Z,63.30
2019-05-25T04:14:22.286Z,62.97
2019-05-25T04:16:51.789Z,62.48
2019-05-25T04:19:21.249Z,62.30
2019-05-25T04:21:50.645Z,61.85
2019-05-25T04:24:20.009Z,61.27
2019-05-25T04:26:49.476Z,61.71
2019-05-25T04:29:19.046Z,61.00
2019-05-25T04:31:48.445Z,61.01
2019-05-25T04:34:17.838Z,60.65
2019-05-25T04:36:47.336Z,60.75
2019-05-25T04:39:16.787Z,60.27
2019-05-25T04:41:46.148Z,60.11
2019-05-25T04:44:15.543Z,59.60
2019-05-25T04:46:45.057Z,57.54
2019-05-25T04:49:14.421Z,55.79
2019-05-25T04:51:43.910Z,54.60
2019-05-25T04:54:13.495Z,54.06
2019-05-25T04:56:42.855Z,53.87
2019-05-25T04:59:12.256Z,53.34
2019-05-25T05:01:41.762Z,54.70
2019-05-25T05:04:11.230Z,55.24
2019-05-25T05:06:40.660Z,55.01
2019-05-25T05:09:11.329Z,54.51
2019-05-25T05:11:40.814Z,54.77
2019-05-25T05:14:10.317Z,54.76
2019-05-25T05:16:39.686Z,55.38
2019-05-25T05:19:09.065Z,54.87
2019-05-25T05:21:38.565Z,54.93
2019-05-25T05:24:08.135Z,54.83
2019-05-25T05:26:37.495Z,55.40
2019-05-25T05:29:07.061Z,55.58
2019-05-25T05:31:36.426Z,54.66
2019-05-25T05:34:06.185Z,54.55
2019-05-25T05:36:36.783Z,53.43
2019-05-25T05:39:08.171Z,53.94
2019-05-25T05:41:40.429Z,53.55
2019-05-25T05:44:09.782Z,53.50
2019-05-25T05:46:39.461Z,53.84
2019-05-25T05:49:10.503Z,53.83
2019-05-25T05:51:41.079Z,53.25
2019-05-25T05:54:10.440Z,52.79
2019-05-25T05:56:40.003Z,53.91
2019-05-25T05:59:09.421Z,55.48
2019-05-25T06:01:38.795Z,56.18
2019-05-25T06:04:08.182Z,56.42
2019-05-25T06:06:37.633Z,55.78
2019-05-25T06:09:08.188Z,55.46
2019-05-25T06:11:37.825Z,54.54
2019-05-25T06:14:07.194Z,54.23
2019-05-25T06:16:36.765Z,54.27
2019-05-25T06:19:06.508Z,54.38
2019-05-25T06:21:35.862Z,52.97
2019-05-25T06:24:05.508Z,53.62
2019-05-25T06:26:35.021Z,54.41
2019-05-25T06:29:04.581Z,55.04
2019-05-25T06:31:33.948Z,55.22
2019-05-25T06:34:03.348Z,55.72
2019-05-25T06:36:32.917Z,55.84
2019-05-25T06:39:05.264Z,55.69
2019-05-25T06:41:34.821Z,55.96
2019-05-25T06:44:04.402Z,55.52
2019-05-25T06:46:33.853Z,55.23
2019-05-25T06:49:03.270Z,54.79
2019-05-25T06:51:32.818Z,55.34
2019-05-25T06:54:02.325Z,55.46
2019-05-25T06:56:31.713Z,55.20
2019-05-25T06:59:01.065Z,55.51
2019-05-25T07:01:30.533Z,55.32
2019-05-25T07:04:00.046Z,55.46
2019-05-25T07:06:29.431Z,55.53
2019-05-25T07:08:58.809Z,55.05
2019-05-25T07:11:28.336Z,55.04
2019-05-25T07:13:57.778Z,54.53
2019-05-25T07:16:27.143Z,54.50
2019-05-25T07:18:56.534Z,53.61
2019-05-25T07:21:26.067Z,53.51
2019-05-25T07:23:55.570Z,53.04
2019-05-25T07:26:24.975Z,52.66
2019-05-25T07:28:54.457Z,51.49
2019-05-25T07:31:23.844Z,51.62
2019-05-25T07:33:53.230Z,50.52
2019-05-25T07:36:22.789Z,51.38
2019-05-25T07:38:52.384Z,50.12
2019-05-25T07:41:22.960Z,50.47
2019-05-25T07:43:52.318Z,49.97
2019-05-25T07:46:21.833Z,49.86
2019-05-25T07:48:51.330Z,49.94
2019-05-25T07:51:20.712Z,48.54
2019-05-25T07:53:50.079Z,48.92
2019-05-25T07:56:19.667Z,48.96
2019-05-25T07:58:49.140Z,48.54
2019-05-25T08:01:18.557Z,48.78
2019-05-25T08:03:48.061Z,49.33
2019-05-25T08:06:17.675Z,48.83
2019-05-25T08:08:47.049Z,48.94
2019-05-25T08:11:16.572Z,48.59
2019-05-25T08:13:46.320Z,48.15
2019-05-25T08:16:15.693Z,48.41
2019-05-25T08:18:45.088Z,47.03
2019-05-25T08:21:14.580Z,47.40
2019-05-25T08:23:44.119Z,46.75
2019-05-25T08:26:13.648Z,45.36
2019-05-25T08:28:43.006Z,44.47
2019-05-25T08:31:12.544Z,45.10
2019-05-25T08:33:42.055Z,43.68
2019-05-25T08:36:11.419Z,44.75
2019-05-25T08:38:40.782Z,44.71
2019-05-25T08:41:10.297Z,44.91
2019-05-25T08:43:40.799Z,43.94
2019-05-25T08:46:10.161Z,44.53
2019-05-25T08:48:39.704Z,44.11
2019-05-25T08:51:09.101Z,44.44
2019-05-25T08:53:41.865Z,43.07
2019-05-25T08:56:09.772Z,42.97
2019-05-25T08:58:47.994Z,42.34
2019-05-25T09:01:10.323Z,41.95
2019-05-25T09:03:39.716Z,41.89
2019-05-25T09:06:09.186Z,41.56
2019-05-25T09:08:38.639Z,41.98
2019-05-25T09:11:08.038Z,41.94
2019-05-25T09:13:37.429Z,42.22
2019-05-25T09:16:06.910Z,42.18
2019-05-25T09:18:36.415Z,42.26
2019-05-25T09:21:05.782Z,40.53
2019-05-25T09:23:35.144Z,40.46
2019-05-25T09:26:04.736Z,39.74
2019-05-25T09:28:34.082Z,39.89
2019-05-25T09:31:03.543Z,40.30
2019-05-25T09:33:33.034Z,40.74
2019-05-25T09:36:02.488Z,39.88
2019-05-25T09:38:32.014Z,39.13
2019-05-25T09:41:01.493Z,38.69
2019-05-25T09:43:33.856Z,38.66
2019-05-25T09:46:03.305Z,39.07
2019-05-25T09:48:33.338Z,39.33
2019-05-25T09:51:02.971Z,39.47
2019-05-25T09:53:32.448Z,39.21
2019-05-25T09:56:01.835Z,39.31
2019-05-25T09:58:31.196Z,38.83
2019-05-25T10:01:00.774Z,39.13
2019-05-25T10:03:30.314Z,39.69
2019-05-25T10:05:59.923Z,40.46
2019-05-25T10:08:29.365Z,39.77
2019-05-25T10:10:58.806Z,39.93
2019-05-25T10:13:28.306Z,39.38
2019-05-25T10:15:57.850Z,38.69
2019-05-25T10:18:27.333Z,38.56
2019-05-25T10:20:56.689Z,38.46
2019-05-25T10:23:26.124Z,37.69
2019-05-25T10:25:55.657Z,37.41
2019-05-25T10:28:25.120Z,38.25
2019-05-25T10:30:55.941Z,37.70
2019-05-25T10:33:25.510Z,38.27
2019-05-25T10:35:55.088Z,37.46
2019-05-25T10:38:24.582Z,37.02
2019-05-25T10:40:53.974Z,36.49
2019-05-25T10:43:23.341Z,36.96
2019-05-25T10:45:52.791Z,37.99
2019-05-25T10:48:22.454Z,37.07
2019-05-25T10:50:52.034Z,37.12
2019-05-25T10:53:21.539Z,37.17
2019-05-25T10:55:50.937Z,35.24
2019-05-25T10:58:20.344Z,36.89
2019-05-25T11:00:51.147Z,36.35
2019-05-25T11:03:22.989Z,36.00
2019-05-25T11:05:52.342Z,35.75
2019-05-25T11:08:21.714Z,36.34
2019-05-25T11:10:51.193Z,36.17
2019-05-25T11:13:20.667Z,36.49
2019-05-25T11:15:50.060Z,35.11
2019-05-25T11:18:19.601Z,35.27
2019-05-25T11:20:49.216Z,35.39
2019-05-25T11:23:18.703Z,34.57
2019-05-25T11:25:48.452Z,34.41
2019-05-25T11:28:18.023Z,35.04
2019-05-25T11:30:47.507Z,34.26
2019-05-25T11:33:17.264Z,34.71
2019-05-25T11:35:46.691Z,34.54
2019-05-25T11:38:16.167Z,35.42
2019-05-25T11:40:45.728Z,34.34
2019-05-25T11:43:15.235Z,33.56
2019-05-25T11:45:45.564Z,32.50
2019-05-25T11:48:15.104Z,31.98
2019-05-25T11:50:44.583Z,32.27
2019-05-25T11:53:14.061Z,31.92
2019-05-25T11:55:43.469Z,32.69
2019-05-25T11:58:12.993Z,32.83
2019-05-25T12:00:42.475Z,33.64
2019-05-25T12:03:12.040Z,33.19
2019-05-25T12:05:41.898Z,32.55
2019-05-25T12:08:11.423Z,32.19
2019-05-25T12:10:40.861Z,32.72
2019-05-25T12:13:10.254Z,32.95
2019-05-25T12:15:39.756Z,33.02
2019-05-25T12:18:09.388Z,33.25
2019-05-25T12:20:38.929Z,33.86
2019-05-25T12:23:08.798Z,34.86
2019-05-25T12:25:38.589Z,35.72
2019-05-25T12:28:08.153Z,35.10
2019-05-25T12:30:40.911Z,35.11
2019-05-25T12:33:08.725Z,34.85
2019-05-25T12:35:38.206Z,34.09
2019-05-25T12:38:07.756Z,33.83
2019-05-25T12:40:52.438Z,33.33
2019-05-25T12:43:08.546Z,33.33
2019-05-25T12:45:38.137Z,33.67
2019-05-25T12:48:07.568Z,33.43
2019-05-25T12:50:37.159Z,32.77
2019-05-25T12:53:06.748Z,32.53
2019-05-25T12:55:36.139Z,33.11
2019-05-25T12:58:05.578Z,32.91
2019-05-25T13:00:35.050Z,33.12
2019-05-25T13:03:04.661Z,33.53
2019-05-25T13:05:34.884Z,33.64
2019-05-25T13:08:05.491Z,33.77
2019-05-25T13:10:35.017Z,33.30
2019-05-25T13:13:04.521Z,33.44
2019-05-25T13:15:33.919Z,34.10
2019-05-25T13:18:03.346Z,34.58
2019-05-25T13:20:33.016Z,34.25
2019-05-25T13:23:05.476Z,33.68
2019-05-25T13:25:33.697Z,33.76
2019-05-25T13:28:03.174Z,33.97
2019-05-25T13:30:32.540Z,34.79
2019-05-25T13:33:02.079Z,33.99
2019-05-25T13:35:31.595Z,34.37
2019-05-25T13:38:01.068Z,35.10
2019-05-25T13:40:30.509Z,35.62
2019-05-25T13:43:00.854Z,35.33
2019-05-25T13:45:30.393Z,34.35
2019-05-25T13:48:00.018Z,34.69
2019-05-25T13:50:29.442Z,34.10
2019-05-25T13:52:58.943Z,33.34
2019-05-25T13:55:28.434Z,31.65
2019-05-25T13:57:58.063Z,31.69
2019-05-25T14:00:27.396Z,31.01
2019-05-25T14:02:57.162Z,30.42
2019-05-25T14:05:26.698Z,30.83
2019-05-25T14:07:56.259Z,31.22
2019-05-25T14:10:25.729Z,31.48
2019-05-25T14:12:55.237Z,31.84
2019-05-25T14:15:24.652Z,32.76
2019-05-25T14:17:54.103Z,33.02
2019-05-25T14:20:23.654Z,34.01
2019-05-25T14:22:53.240Z,34.34
2019-05-25T14:25:22.609Z,34.44
2019-05-25T14:27:52.106Z,34.40
2019-05-25T14:30:21.741Z,34.62
2019-05-25T14:32:51.201Z,34.84
2019-05-25T14:35:20.643Z,35.15
2019-05-25T14:37:50.142Z,35.41
2019-05-25T14:40:19.975Z,36.50
2019-05-25T14:42:49.479Z,36.93
2019-05-25T14:45:19.494Z,37.76
2019-05-25T14:47:49.002Z,37.22
2019-05-25T14:50:18.679Z,37.43
2019-05-25T14:52:48.107Z,36.91
2019-05-25T14:55:17.691Z,37.92
2019-05-25T14:57:47.314Z,38.23
2019-05-25T15:00:18.770Z,38.06
2019-05-25T15:02:48.380Z,37.93
2019-05-25T15:05:18.026Z,38.00
2019-05-25T15:07:47.499Z,37.81
2019-05-25T15:10:17.001Z,36.56
2019-05-25T15:12:46.441Z,37.20
2019-05-25T15:15:17.511Z,36.49
2019-05-25T15:17:47.058Z,35.61
2019-05-25T15:20:16.989Z,35.50
2019-05-25T15:22:47.150Z,36.62
2019-05-25T15:25:16.936Z,37.31
2019-05-25T15:27:46.479Z,37.68
2019-05-25T15:30:16.281Z,38.08
2019-05-25T15:32:45.846Z,38.29
2019-05-25T15:35:15.451Z,38.23
2019-05-25T15:37:44.954Z,38.71
2019-05-25T15:40:15.130Z,38.03
2019-05-25T15:42:44.708Z,38.34
2019-05-25T15:45:14.989Z,37.87
2019-05-25T15:47:46.154Z,38.31
2019-05-25T15:50:16.387Z,38.24
2019-05-25T15:52:45.932Z,38.75
2019-05-25T15:55:15.526Z,38.87
2019-05-25T15:57:44.962Z,39.08
2019-05-25T16:00:15.527Z,38.92
2019-05-25T16:02:45.025Z,38.55
2019-05-25T16:05:15.304Z,38.64
2019-05-25T16:07:48.415Z,39.21
2019-05-25T16:10:17.883Z,39.13
2019-05-25T16:12:47.369Z,38.47
2019-05-25T16:15:26.423Z,39.02
2019-05-25T16:17:55.947Z,40.97
2019-05-25T16:20:25.518Z,42.12
2019-05-25T16:22:54.900Z,42.85
2019-05-25T16:25:24.598Z,43.80
2019-05-25T16:27:54.105Z,44.16
2019-05-25T16:30:23.624Z,44.84
2019-05-25T16:33:11.540Z,45.17
2019-05-25T16:35:24.369Z,45.36
2019-05-25T16:37:53.931Z,45.34
2019-05-25T16:40:23.444Z,45.82
2019-05-25T16:42:52.922Z,45.61
2019-05-25T16:45:31.085Z,45.44
2019-05-25T16:48:00.793Z,45.44
2019-05-25T16:50:30.317Z,44.81
2019-05-25T16:52:59.800Z,44.94
2019-05-25T16:55:29.326Z,44.36
2019-05-25T16:57:58.835Z,43.65
2019-05-25T17:00:29.310Z,43.85
2019-05-25T17:02:59.543Z,44.17
2019-05-25T17:05:29.481Z,44.84
2019-05-25T17:07:59.139Z,44.79
2019-05-25T17:10:28.514Z,44.66
2019-05-25T17:12:58.011Z,45.00
2019-05-25T17:15:27.559Z,45.27
2019-05-25T17:17:57.129Z,45.62
2019-05-25T17:20:26.830Z,45.82
2019-05-25T17:22:56.259Z,46.45
2019-05-25T17:25:25.798Z,47.01
2019-05-25T17:27:55.381Z,47.01
2019-05-25T17:30:44.587Z,47.17
2019-05-25T17:33:14.240Z,47.36
2019-05-25T17:35:44.162Z,47.71
2019-05-25T17:38:13.820Z,48.25
2019-05-25T17:40:43.314Z,48.62
2019-05-25T17:43:12.872Z,49.13
2019-05-25T17:45:42.357Z,49.57
2019-05-25T17:48:11.751Z,49.79
2019-05-25T17:50:41.384Z,49.76
2019-05-25T17:53:11.449Z,50.19
2019-05-25T17:55:45.506Z,50.81
2019-05-25T17:58:15.000Z,51.33
2019-05-25T18:00:48.906Z,52.04
2019-05-25T18:03:18.553Z,51.99
2019-05-25T18:05:48.373Z,51.93
2019-05-25T18:08:18.731Z,51.99
2019-05-25T18:10:53.566Z,52.54
2019-05-25T18:13:20.244Z,53.20
2019-05-25T18:15:49.781Z,52.89
2019-05-25T18:18:19.244Z,53.26
2019-05-25T18:20:49.665Z,53.30
2019-05-25T18:23:19.652Z,53.68
2019-05-25T18:25:49.194Z,54.67
2019-05-25T18:28:18.702Z,54.47
2019-05-25T18:30:48.112Z,55.11
2019-05-25T18:33:17.581Z,55.32
2019-05-25T18:35:47.101Z,55.85
2019-05-25T18:38:16.591Z,55.75
2019-05-25T18:40:46.000Z,54.97
2019-05-25T18:43:15.435Z,55.81
2019-05-25T18:45:45.013Z,55.51
2019-05-25T18:48:15.374Z,56.14
2019-05-25T18:50:44.946Z,56.45
2019-05-25T18:53:14.440Z,56.48
2019-05-25T18:55:43.832Z,56.94
2019-05-25T18:58:13.327Z,57.40
2019-05-25T19:00:42.830Z,57.93
2019-05-25T19:03:12.413Z,58.24
2019-05-25T19:05:41.938Z,58.32
2019-05-25T19:08:11.428Z,58.33
2019-05-25T19:10:40.925Z,58.55
2019-05-25T19:13:10.430Z,58.46
2019-05-25T19:15:39.939Z,58.49
2019-05-25T19:18:09.349Z,58.62
2019-05-25T19:20:38.933Z,58.97
2019-05-25T19:23:08.395Z,59.19
2019-05-25T19:25:37.821Z,59.07
2019-05-25T19:28:07.397Z,58.09
2019-05-25T19:30:36.885Z,58.63
2019-05-25T19:33:06.517Z,58.66
2019-05-25T19:35:35.939Z,58.49
2019-05-25T19:38:05.341Z,58.60
2019-05-25T19:40:34.837Z,58.64
2019-05-25T19:43:04.468Z,58.95
2019-05-25T19:45:33.929Z,58.63
2019-05-25T19:48:03.412Z,58.40
2019-05-25T19:50:32.951Z,58.47
2019-05-25T19:53:02.511Z,58.75
2019-05-25T19:55:31.900Z,59.17
2019-05-25T19:58:01.346Z,59.45
2019-05-25T20:00:30.840Z,59.65
2019-05-25T20:03:00.301Z,59.84
2019-05-25T20:05:29.744Z,60.23
2019-05-25T20:07:59.225Z,60.56
2019-05-25T20:10:28.602Z,61.30
2019-05-25T20:12:58.041Z,61.37
2019-05-25T20:15:27.549Z,61.42
2019-05-25T20:17:57.033Z,61.49
2019-05-25T20:20:26.609Z,61.65
2019-05-25T20:22:56.017Z,61.80
2019-05-25T20:25:25.497Z,62.09
2019-05-25T20:27:55.042Z,62.17
2019-05-25T20:30:24.429Z,62.19
2019-05-25T20:32:53.822Z,62.42
2019-05-25T20:35:32.317Z,62.34
2019-05-25T20:37:54.636Z,62.77
2019-05-25T20:40:24.009Z,62.79
2019-05-25T20:42:53.595Z,62.65
2019-05-25T20:45:23.146Z,62.92
2019-05-25T20:47:52.585Z,63.03
2019-05-25T20:50:22.112Z,63.01
2019-05-25T20:52:51.612Z,63.10
2019-05-25T20:55:20.996Z,63.10
2019-05-25T20:57:50.434Z,63.33
2019-05-25T21:00:24.009Z,63.78
2019-05-25T21:03:05.062Z,63.93
2019-05-25T21:05:22.606Z,64.38
2019-05-25T21:07:52.001Z,64.36
2019-05-25T21:10:21.483Z,64.70
2019-05-25T21:12:50.986Z,65.20
2019-05-25T21:15:20.654Z,65.57
2019-05-25T21:17:50.056Z,65.52
2019-05-25T21:20:19.572Z,65.27
2019-05-25T21:22:49.052Z,65.90
2019-05-25T21:25:18.650Z,65.90
2019-05-25T21:27:48.157Z,66.15
2019-05-25T21:30:17.743Z,66.20
2019-05-25T21:32:47.150Z,66.70
2019-05-25T21:35:16.920Z,68.03
2019-05-25T21:37:46.948Z,68.03
2019-05-25T21:40:17.425Z,67.70
2019-05-25T21:42:46.869Z,67.89
2019-05-25T21:45:16.855Z,69.15
2019-05-25T21:47:47.386Z,69.15
2019-05-25T21:50:16.801Z,69.25
2019-05-25T21:52:47.361Z,69.48
2019-05-25T21:55:16.963Z,69.98
2019-05-25T21:57:46.479Z,70.43
2019-05-25T22:00:21.400Z,70.47
2019-05-25T22:02:51.043Z,70.43
2019-05-25T22:05:20.631Z,70.51
2019-05-25T22:07:50.204Z,70.48
2019-05-25T22:10:19.711Z,70.65
2019-05-25T22:12:49.219Z,70.86
2019-05-25T22:15:18.818Z,71.00
2019-05-25T22:17:48.304Z,71.26
2019-05-25T22:20:18.867Z,71.87
2019-05-25T22:22:48.360Z,72.39
2019-05-25T22:25:18.098Z,73.25
2019-05-25T22:27:47.643Z,73.25
2019-05-25T22:30:17.227Z,73.39
2019-05-25T22:32:46.798Z,73.54
2019-05-25T22:35:16.307Z,73.77
2019-05-25T22:37:45.784Z,73.97
2019-05-25T22:40:16.305Z,73.75
2019-05-25T22:42:45.786Z,73.70
2019-05-25T22:45:16.796Z,73.89
2019-05-25T22:47:46.325Z,74.53
2019-05-25T22:50:16.026Z,74.85
2019-05-25T22:52:45.497Z,74.51
2019-05-25T22:55:15.112Z,74.32
2019-05-25T22:57:44.595Z,73.76
2019-05-25T23:00:14.889Z,73.96
2019-05-25T23:02:44.422Z,73.91
2019-05-25T23:05:15.004Z,73.66
2019-05-25T23:07:44.424Z,73.64
2019-05-25T23:10:14.377Z,73.40
2019-05-25T23:12:43.841Z,73.57
2019-05-25T23:15:13.526Z,74.16
2019-05-25T23:17:42.979Z,74.83
2019-05-25T23:20:12.768Z,75.15
2019-05-25T23:22:42.232Z,75.22
2019-05-25T23:25:11.711Z,75.28
2019-05-25T23:27:41.190Z,75.27
2019-05-25T23:30:11.857Z,75.35
2019-05-25T23:32:41.304Z,74.96
2019-05-25T23:35:11.005Z,74.96
2019-05-25T23:37:40.464Z,75.50
2019-05-25T23:40:10.188Z,75.92
2019-05-25T23:42:39.626Z,75.97
2019-05-25T23:45:10.873Z,76.44
2019-05-25T23:47:40.381Z,76.44
2019-05-25T23:50:10.650Z,76.98
2019-05-25T23:52:40.173Z,77.99
2019-05-25T23:55:11.228Z,77.99
2019-05-25T23:57:40.825Z,78.15
